Time;durP1;ratioP1;P1;durP2;ratioP2;P2;SDS_P1;SDS_P2;PMS_P1;PMS_P2;Temp;Humidity;BMP_temperature;BMP_pressure;BME280_temperature;BME280_humidity;BME280_pressure;Samples;Min_cycle;Max_cycle;Signal;HPM_P1;HPM_P2
2021/08/31 00:01:47;;;;;;;30.10;27.23;;;14.20;99.90;;;;;;5125702;27;20544;-73
2021/08/31 00:04:14;;;;;;;30.73;28.20;;;14.20;99.90;;;;;;5125019;27;20464;-70
2021/08/31 00:06:41;;;;;;;29.90;27.10;;;14.20;99.90;;;;;;5134581;27;20479;-73
2021/08/31 00:09:08;;;;;;;30.33;27.47;;;14.20;99.90;;;;;;5125107;27;20819;-73
2021/08/31 00:11:36;;;;;;;31.30;28.43;;;14.20;99.90;;;;;;5123852;27;20453;-70
2021/08/31 00:14:03;;;;;;;30.40;27.70;;;14.20;99.90;;;;;;5129417;27;20483;-70
2021/08/31 00:16:30;;;;;;;30.23;27.67;;;14.10;99.90;;;;;;5135194;27;21407;-71
2021/08/31 00:18:57;;;;;;;30.70;28.00;;;14.00;99.90;;;;;;5137075;27;20889;-70
2021/08/31 00:21:24;;;;;;;29.57;26.77;;;14.00;99.90;;;;;;5128877;27;20521;-73
2021/08/31 00:23:51;;;;;;;33.70;28.50;;;14.00;99.90;;;;;;5124805;27;21208;-72
2021/08/31 00:26:18;;;;;;;32.27;29.17;;;14.00;99.90;;;;;;5130966;27;20484;-71
2021/08/31 00:28:46;;;;;;;31.70;28.43;;;13.90;99.90;;;;;;5119025;27;20812;-70
2021/08/31 00:31:13;;;;;;;31.90;28.77;;;13.90;99.90;;;;;;5117124;27;20452;-71
2021/08/31 00:33:40;;;;;;;33.57;30.47;;;13.90;99.90;;;;;;5121860;27;20814;-70
2021/08/31 00:36:07;;;;;;;32.27;29.40;;;13.80;99.90;;;;;;5125108;27;20467;-72
2021/08/31 00:38:33;;;;;;;33.00;29.70;;;13.80;99.90;;;;;;5119542;27;20453;-71
2021/08/31 00:41:01;;;;;;;32.43;29.53;;;13.80;99.90;;;;;;5119460;27;20456;-73
2021/08/31 00:43:28;;;;;;;35.57;31.97;;;13.80;99.90;;;;;;5134253;27;20459;-69
2021/08/31 00:45:57;;;;;;;32.30;29.43;;;13.80;99.90;;;;;;5122722;27;20498;-72
2021/08/31 00:48:24;;;;;;;32.13;29.30;;;13.70;99.90;;;;;;5123049;27;20459;-73
2021/08/31 00:50:53;;;;;;;33.53;30.50;;;13.70;99.90;;;;;;5114862;27;20457;-73
2021/08/31 00:53:20;;;;;;;31.80;28.90;;;13.60;99.90;;;;;;5114314;27;20940;-71
2021/08/31 00:55:47;;;;;;;33.43;29.87;;;13.60;99.90;;;;;;5123054;27;21218;-71
2021/08/31 00:58:14;;;;;;;36.73;30.97;;;13.60;99.90;;;;;;5123642;27;20452;-70
2021/08/31 01:00:40;;;;;;;34.00;30.70;;;13.50;99.90;;;;;;5117624;27;20484;-70
2021/08/31 01:03:09;;;;;;;31.23;28.03;;;13.50;99.90;;;;;;5120974;27;20460;-69
2021/08/31 01:05:36;;;;;;;33.53;30.33;;;13.50;99.90;;;;;;5125136;27;20479;-70
2021/08/31 01:08:04;;;;;;;34.37;31.07;;;13.50;99.90;;;;;;5126764;27;20465;-72
2021/08/31 01:10:31;;;;;;;34.50;30.83;;;13.50;99.90;;;;;;5119613;27;20978;-71
2021/08/31 01:12:58;;;;;;;34.20;30.87;;;13.50;99.90;;;;;;5130197;27;20459;-70
2021/08/31 01:15:25;;;;;;;36.20;32.53;;;13.50;99.90;;;;;;5119893;27;20483;-70
2021/08/31 01:17:53;;;;;;;36.50;32.90;;;13.50;99.90;;;;;;5117840;27;20461;-70
2021/08/31 01:20:21;;;;;;;37.47;33.53;;;13.40;99.90;;;;;;5118743;27;20490;-72
2021/08/31 01:22:48;;;;;;;35.57;32.17;;;13.50;99.90;;;;;;5130693;27;20487;-71
2021/08/31 01:25:16;;;;;;;35.90;32.17;;;13.40;99.90;;;;;;5133723;27;20452;-69
2021/08/31 01:27:43;;;;;;;38.27;32.77;;;13.40;99.90;;;;;;5122334;27;20480;-70
2021/08/31 01:30:11;;;;;;;36.67;32.63;;;13.50;99.90;;;;;;5119862;27;20808;-72
2021/08/31 01:32:39;;;;;;;44.13;33.63;;;13.40;99.90;;;;;;5119016;27;20477;-69
2021/08/31 01:35:06;;;;;;;38.47;34.40;;;13.40;99.90;;;;;;5122103;27;20460;-70
2021/08/31 01:37:33;;;;;;;36.13;32.37;;;13.40;99.90;;;;;;5122294;27;20455;-70
2021/08/31 01:40:00;;;;;;;34.30;30.73;;;13.30;99.90;;;;;;5121879;27;20460;-69
2021/08/31 01:42:28;;;;;;;36.60;32.73;;;13.40;99.90;;;;;;5121240;27;20481;-70
2021/08/31 01:44:55;;;;;;;38.60;34.50;;;13.40;99.90;;;;;;5125308;27;20525;-70
2021/08/31 01:47:22;;;;;;;36.60;33.10;;;13.30;99.90;;;;;;5120250;27;20828;-70
2021/08/31 01:49:48;;;;;;;38.27;34.17;;;13.30;99.90;;;;;;5130234;27;20461;-70
2021/08/31 01:52:15;;;;;;;38.10;34.00;;;13.30;99.90;;;;;;5135000;27;20448;-73
2021/08/31 01:54:42;;;;;;;38.80;34.23;;;13.20;99.90;;;;;;5124753;27;20448;-72
2021/08/31 01:57:09;;;;;;;40.83;36.23;;;13.20;99.90;;;;;;5120499;27;20456;-70
2021/08/31 01:59:37;;;;;;;37.00;33.40;;;13.20;99.90;;;;;;5129153;27;20566;-70
2021/08/31 02:02:04;;;;;;;39.47;35.17;;;13.20;99.90;;;;;;5124146;27;20444;-70
2021/08/31 02:04:32;;;;;;;37.57;33.57;;;13.10;99.90;;;;;;5130591;27;20451;-72
2021/08/31 02:06:59;;;;;;;37.90;33.83;;;13.10;99.90;;;;;;5113603;27;20835;-70
2021/08/31 02:09:25;;;;;;;40.30;36.40;;;13.10;99.90;;;;;;5111568;27;20460;-72
2021/08/31 02:11:52;;;;;;;44.70;36.00;;;13.10;99.90;;;;;;5116831;27;20484;-70
2021/08/31 02:14:19;;;;;;;40.53;35.03;;;13.10;99.90;;;;;;5124555;27;20467;-71
2021/08/31 02:16:47;;;;;;;40.93;35.10;;;13.10;99.90;;;;;;5123590;27;20549;-71
2021/08/31 02:19:14;;;;;;;38.90;34.83;;;13.00;99.90;;;;;;5129169;27;22366;-70
2021/08/31 02:21:41;;;;;;;41.63;37.00;;;13.00;99.90;;;;;;5121502;27;20456;-72
2021/08/31 02:24:08;;;;;;;39.80;35.73;;;13.00;99.90;;;;;;5110076;27;20489;-73
2021/08/31 02:26:35;;;;;;;38.07;34.50;;;13.00;99.90;;;;;;5114333;27;20510;-69
2021/08/31 02:29:02;;;;;;;39.80;35.30;;;13.00;99.90;;;;;;5124216;27;20851;-71
2021/08/31 02:31:29;;;;;;;39.47;35.27;;;13.00;99.90;;;;;;5131878;27;20459;-71
2021/08/31 02:33:57;;;;;;;39.33;35.23;;;13.00;99.90;;;;;;5133234;27;20456;-73
2021/08/31 02:36:24;;;;;;;42.67;37.53;;;13.00;99.90;;;;;;5119378;27;20471;-69
2021/08/31 02:38:51;;;;;;;46.63;36.37;;;12.90;99.90;;;;;;5116965;27;20468;-70
2021/08/31 02:41:18;;;;;;;48.53;38.13;;;13.00;99.90;;;;;;5109433;27;20472;-72
2021/08/31 02:43:44;;;;;;;45.00;38.67;;;13.00;99.90;;;;;;5128673;27;20478;-70
2021/08/31 02:46:11;;;;;;;43.60;37.33;;;13.00;99.90;;;;;;5123783;27;20459;-70
2021/08/31 02:48:38;;;;;;;43.77;36.33;;;12.90;99.90;;;;;;5120999;27;20455;-71
2021/08/31 02:51:07;;;;;;;44.23;39.57;;;13.00;99.90;;;;;;5124113;27;20513;-70
2021/08/31 02:53:33;;;;;;;41.73;36.00;;;13.00;99.90;;;;;;5125629;27;20452;-70
2021/08/31 02:56:00;;;;;;;46.60;38.07;;;12.90;99.90;;;;;;5122699;27;20476;-72
2021/08/31 02:58:28;;;;;;;41.43;36.97;;;12.90;99.90;;;;;;5122999;27;20465;-72
2021/08/31 03:01:05;;;;;;;44.47;39.77;;;13.00;99.90;;;;;;5118172;27;20484;-70
2021/08/31 03:03:32;;;;;;;42.70;38.17;;;12.90;99.90;;;;;;5118338;27;20452;-70
2021/08/31 03:05:58;;;;;;;50.00;39.70;;;12.90;99.90;;;;;;5119324;27;20513;-70
2021/08/31 03:08:27;;;;;;;49.10;40.87;;;12.80;99.90;;;;;;5127506;27;20973;-70
2021/08/31 03:10:54;;;;;;;55.43;39.90;;;12.80;99.90;;;;;;5127072;27;20448;-70
2021/08/31 03:13:21;;;;;;;47.80;39.80;;;12.70;99.90;;;;;;5120580;27;21456;-70
2021/08/31 03:15:48;;;;;;;54.40;42.00;;;12.70;99.90;;;;;;5113589;27;20484;-70
2021/08/31 03:18:15;;;;;;;47.73;38.50;;;12.60;99.90;;;;;;5117103;27;20534;-70
2021/08/31 03:20:41;;;;;;;47.60;40.13;;;12.60;99.90;;;;;;5129216;27;20572;-70
2021/08/31 03:23:08;;;;;;;43.23;38.53;;;12.60;99.90;;;;;;5126947;27;21359;-72
2021/08/31 03:25:37;;;;;;;48.33;42.30;;;12.60;99.90;;;;;;5127009;27;20950;-70
2021/08/31 03:28:04;;;;;;;47.27;40.63;;;12.60;99.90;;;;;;5122614;27;20476;-73
2021/08/31 03:30:31;;;;;;;51.30;41.13;;;12.60;99.90;;;;;;5118194;27;20551;-70
2021/08/31 03:32:57;;;;;;;55.00;39.17;;;12.70;99.90;;;;;;5115746;27;20891;-70
2021/08/31 03:35:25;;;;;;;51.20;40.70;;;12.80;99.90;;;;;;5118477;28;20448;-70
2021/08/31 03:37:52;;;;;;;48.73;40.40;;;12.80;99.90;;;;;;5113120;27;20461;-72
2021/08/31 03:40:18;;;;;;;59.93;43.50;;;12.80;99.90;;;;;;5118151;27;20456;-70
2021/08/31 03:42:48;;;;;;;53.43;44.30;;;13.00;99.90;;;;;;5122499;27;20528;-70
2021/08/31 03:45:15;;;;;;;63.23;43.43;;;13.20;99.90;;;;;;5116316;27;20545;-73
2021/08/31 03:47:42;;;;;;;59.00;41.50;;;13.30;99.90;;;;;;5117617;28;20485;-70
2021/08/31 03:50:11;;;;;;;57.23;43.17;;;13.40;99.90;;;;;;5116588;27;20932;-70
2021/08/31 03:52:38;;;;;;;64.50;44.63;;;13.50;99.90;;;;;;5128837;27;20456;-69
2021/08/31 03:55:06;;;;;;;58.43;42.43;;;13.60;99.90;;;;;;5114906;27;20452;-70
2021/08/31 03:57:33;;;;;;;62.53;44.63;;;13.70;99.90;;;;;;5115635;27;20449;-70
2021/08/31 04:00:01;;;;;;;61.77;42.63;;;13.90;99.90;;;;;;5122453;27;20472;-72
2021/08/31 04:02:28;;;;;;;77.83;48.27;;;13.90;99.90;;;;;;5113309;27;20460;-72
2021/08/31 04:04:54;;;;;;;90.80;47.70;;;13.90;99.90;;;;;;5111704;27;20505;-70
2021/08/31 04:07:21;;;;;;;99.10;49.00;;;13.90;99.90;;;;;;5112991;28;20476;-73
2021/08/31 04:09:49;;;;;;;93.30;51.27;;;14.00;99.90;;;;;;5109847;28;20459;-70
2021/08/31 04:12:16;;;;;;;131.80;51.20;;;14.00;99.90;;;;;;5114087;28;20467;-72
2021/08/31 04:14:43;;;;;;;166.43;49.00;;;14.10;99.90;;;;;;5113399;28;20812;-73
2021/08/31 04:17:12;;;;;;;127.87;47.63;;;14.10;99.90;;;;;;5109731;28;20480;-70
2021/08/31 04:19:39;;;;;;;116.53;48.63;;;14.20;99.90;;;;;;5113433;27;20460;-70
2021/08/31 04:22:07;;;;;;;166.77;51.90;;;14.10;99.90;;;;;;5118761;27;20460;-70
2021/08/31 04:24:35;;;;;;;119.07;46.90;;;14.10;99.90;;;;;;5113327;27;20550;-70
2021/08/31 04:27:02;;;;;;;139.27;49.87;;;14.20;99.90;;;;;;5119452;27;21025;-72
2021/08/31 04:29:29;;;;;;;142.83;48.10;;;14.10;99.90;;;;;;5121455;27;20456;-70
2021/08/31 04:31:56;;;;;;;161.47;51.17;;;14.20;99.90;;;;;;5117258;27;20459;-71
2021/08/31 04:34:25;;;;;;;141.97;49.00;;;14.30;99.90;;;;;;5116856;27;20463;-70
2021/08/31 04:36:51;;;;;;;133.23;48.20;;;14.30;99.90;;;;;;5117275;27;20966;-72
2021/08/31 04:39:18;;;;;;;131.47;47.23;;;14.30;99.90;;;;;;5120005;27;20966;-70
2021/08/31 04:41:45;;;;;;;170.33;51.87;;;14.30;99.90;;;;;;5124687;27;20457;-71
2021/08/31 04:44:12;;;;;;;291.97;54.57;;;14.40;99.90;;;;;;5123589;27;20526;-70
2021/08/31 04:46:39;;;;;;;289.73;57.40;;;14.30;99.90;;;;;;5123434;27;20506;-70
2021/08/31 04:49:06;;;;;;;128.87;49.67;;;14.30;99.90;;;;;;5121856;27;20866;-70
2021/08/31 04:51:34;;;;;;;223.37;58.23;;;14.20;99.90;;;;;;5120127;27;20456;-71
2021/08/31 04:54:01;;;;;;;198.83;54.03;;;14.20;99.90;;;;;;5121145;27;20456;-70
2021/08/31 04:56:28;;;;;;;166.23;50.07;;;14.30;99.90;;;;;;5126260;27;20452;-70
2021/08/31 04:58:55;;;;;;;191.70;52.53;;;14.30;99.90;;;;;;5122167;27;20459;-70
2021/08/31 05:01:22;;;;;;;156.53;49.67;;;14.30;99.90;;;;;;5118693;27;20491;-72
2021/08/31 05:03:49;;;;;;;181.67;52.70;;;14.40;99.90;;;;;;5122203;27;20456;-71
2021/08/31 05:06:15;;;;;;;199.70;51.40;;;14.30;99.90;;;;;;5122681;27;20459;-69
2021/08/31 05:08:44;;;;;;;170.67;54.07;;;14.30;99.90;;;;;;5125409;27;20566;-72
2021/08/31 05:11:11;;;;;;;164.30;49.77;;;14.30;99.90;;;;;;5127004;27;20488;-70
2021/08/31 05:13:40;;;;;;;105.63;47.70;;;14.30;99.90;;;;;;5126519;27;20535;-70
2021/08/31 05:16:07;;;;;;;93.93;48.50;;;14.20;99.90;;;;;;5118981;27;21032;-72
2021/08/31 05:18:35;;;;;;;104.47;47.97;;;14.30;99.90;;;;;;5124863;27;20452;-70
2021/08/31 05:21:04;;;;;;;90.63;46.43;;;14.30;99.90;;;;;;5124924;27;21258;-69
2021/08/31 05:23:32;;;;;;;75.67;45.53;;;14.20;99.90;;;;;;5130158;27;20467;-70
2021/08/31 05:26:02;;;;;;;78.00;46.80;;;14.30;99.90;;;;;;5121085;27;20986;-72
2021/08/31 05:28:29;;;;;;;77.90;47.23;;;14.30;99.90;;;;;;5121933;27;20503;-70
2021/08/31 05:30:56;;;;;;;77.10;47.17;;;14.40;99.90;;;;;;5126261;27;20455;-70
2021/08/31 05:33:22;;;;;;;74.27;48.77;;;14.30;99.90;;;;;;5124976;27;20543;-72
2021/08/31 05:35:49;;;;;;;81.87;47.60;;;14.40;99.90;;;;;;5132394;27;20968;-71
2021/08/31 05:38:16;;;;;;;75.73;46.37;;;14.40;99.90;;;;;;5119792;27;20479;-71
2021/08/31 05:40:43;;;;;;;73.00;45.37;;;14.40;99.90;;;;;;5114436;27;20449;-70
2021/08/31 05:43:13;;;;;;;64.63;46.00;;;14.40;99.90;;;;;;5118396;27;20507;-70
2021/08/31 05:45:40;;;;;;;70.93;46.93;;;14.40;99.90;;;;;;5129612;27;20942;-70
2021/08/31 05:48:07;;;;;;;70.60;47.37;;;14.30;99.90;;;;;;5122260;27;20481;-70
2021/08/31 05:50:34;;;;;;;74.90;46.40;;;14.40;99.90;;;;;;5113078;27;20449;-71
2021/08/31 05:53:01;;;;;;;72.80;46.83;;;14.30;99.90;;;;;;5116526;27;20455;-70
2021/08/31 05:55:28;;;;;;;75.67;47.17;;;14.40;99.90;;;;;;5118763;27;20452;-70
2021/08/31 05:57:56;;;;;;;83.87;48.77;;;14.40;99.90;;;;;;5115791;27;20796;-70
2021/08/31 06:00:24;;;;;;;63.37;45.37;;;14.50;99.90;;;;;;5120832;27;20524;-71
2021/08/31 06:02:52;;;;;;;64.60;46.17;;;14.50;99.90;;;;;;5119564;27;21026;-70
2021/08/31 06:05:19;;;;;;;67.97;46.50;;;14.60;99.90;;;;;;5119860;27;20464;-72
2021/08/31 06:07:46;;;;;;;78.33;48.23;;;14.60;99.90;;;;;;5116557;27;20489;-70
2021/08/31 06:10:15;;;;;;;81.47;47.03;;;14.70;99.90;;;;;;5120395;27;20461;-70
2021/08/31 06:12:42;;;;;;;71.80;48.07;;;14.70;99.90;;;;;;5121398;27;20621;-72
2021/08/31 06:15:09;;;;;;;77.00;48.80;;;14.80;99.90;;;;;;5125940;27;20443;-70
2021/08/31 06:17:38;;;;;;;65.97;47.40;;;14.80;99.90;;;;;;5118704;27;20488;-70
2021/08/31 06:20:06;;;;;;;67.90;44.90;;;14.90;99.90;;;;;;5119004;27;20460;-72
2021/08/31 06:22:33;;;;;;;70.60;47.00;;;15.00;99.90;;;;;;5110545;27;20471;-71
2021/08/31 06:25:00;;;;;;;59.30;44.57;;;14.90;99.90;;;;;;5120695;27;20452;-72
2021/08/31 06:27:27;;;;;;;58.37;41.00;;;14.90;99.90;;;;;;5116662;27;20452;-71
2021/08/31 06:29:55;;;;;;;61.50;41.97;;;14.80;99.90;;;;;;5109717;27;20464;-71
2021/08/31 06:32:21;;;;;;;55.30;41.80;;;14.80;99.90;;;;;;5116711;27;20522;-70
2021/08/31 06:34:50;;;;;;;64.00;42.30;;;14.80;99.90;;;;;;5117089;27;20463;-71
2021/08/31 06:37:17;;;;;;;65.73;42.53;;;14.70;99.90;;;;;;5114169;27;20457;-71
2021/08/31 06:39:44;;;;;;;63.43;41.97;;;14.70;99.90;;;;;;5114439;27;20473;-73
2021/08/31 06:42:11;;;;;;;68.00;41.63;;;14.80;99.90;;;;;;5120885;27;20918;-71
2021/08/31 06:44:39;;;;;;;57.60;41.53;;;14.80;99.90;;;;;;5118155;27;20818;-71
2021/08/31 06:47:06;;;;;;;71.40;45.23;;;14.80;99.90;;;;;;5122447;27;20513;-71
2021/08/31 06:49:33;;;;;;;63.80;43.87;;;14.90;99.90;;;;;;5116693;27;20584;-71
2021/08/31 06:52:02;;;;;;;60.20;42.27;;;14.90;99.90;;;;;;5114967;27;20495;-74
2021/08/31 06:54:30;;;;;;;59.43;41.50;;;15.00;99.90;;;;;;5116210;27;20834;-72
2021/08/31 06:56:58;;;;;;;57.33;40.00;;;15.00;99.90;;;;;;5125709;27;20456;-71
2021/08/31 06:59:25;;;;;;;59.13;40.93;;;15.10;99.90;;;;;;5120633;27;20816;-71
2021/08/31 07:01:52;;;;;;;50.23;39.37;;;15.30;99.90;;;;;;5116047;27;20963;-71
2021/08/31 07:04:19;;;;;;;51.47;39.27;;;15.20;99.90;;;;;;5116334;27;20452;-72
2021/08/31 07:06:45;;;;;;;49.70;38.27;;;15.30;99.90;;;;;;5118206;27;20457;-71
2021/08/31 07:09:14;;;;;;;49.47;39.60;;;15.20;99.90;;;;;;5129226;27;20486;-73
2021/08/31 07:11:41;;;;;;;47.87;39.23;;;15.30;99.90;;;;;;5118645;27;20820;-71
2021/08/31 07:14:09;;;;;;;45.77;37.27;;;15.50;99.90;;;;;;5117994;27;20456;-73
2021/08/31 07:16:35;;;;;;;44.10;34.73;;;15.40;99.90;;;;;;5119071;27;20472;-71
2021/08/31 07:19:03;;;;;;;48.80;39.67;;;15.30;99.90;;;;;;5126868;27;20471;-75
2021/08/31 07:21:30;;;;;;;45.00;38.33;;;15.20;99.90;;;;;;5123588;27;20480;-73
2021/08/31 07:23:57;;;;;;;46.17;39.50;;;15.40;99.90;;;;;;5124588;27;20456;-74
2021/08/31 07:26:26;;;;;;;45.10;37.87;;;15.50;99.90;;;;;;5124002;27;20791;-74
2021/08/31 07:28:53;;;;;;;43.80;38.20;;;15.60;99.90;;;;;;5117147;27;20580;-71
2021/08/31 07:31:20;;;;;;;44.63;36.83;;;15.70;99.90;;;;;;5128683;27;20463;-71
2021/08/31 07:33:48;;;;;;;46.47;38.47;;;15.70;99.90;;;;;;5114849;28;20530;-72
2021/08/31 07:36:20;;;;;;;42.43;36.50;;;15.60;99.90;;;;;;5132698;27;20460;-73
2021/08/31 07:38:47;;;;;;;41.33;37.03;;;15.70;99.90;;;;;;5121032;28;20517;-71
2021/08/31 07:41:15;;;;;;;42.20;36.60;;;15.90;99.90;;;;;;5120189;27;20452;-74
2021/08/31 07:43:44;;;;;;;47.03;37.80;;;15.90;99.90;;;;;;5127019;27;20461;-72
2021/08/31 07:46:12;;;;;;;41.47;36.00;;;16.00;99.90;;;;;;5131302;27;20488;-72
2021/08/31 07:48:39;;;;;;;42.73;38.03;;;16.20;99.90;;;;;;5124200;28;20481;-73
2021/08/31 07:51:06;;;;;;;44.20;39.40;;;16.40;99.90;;;;;;5125910;27;20460;-74
2021/08/31 07:53:33;;;;;;;39.90;34.20;;;16.50;99.90;;;;;;5118646;28;20460;-72
2021/08/31 07:56:00;;;;;;;36.60;32.90;;;16.40;99.90;;;;;;5118673;27;20451;-73
2021/08/31 07:58:27;;;;;;;39.10;34.40;;;16.20;99.90;;;;;;5117752;27;20464;-71
2021/08/31 08:00:56;;;;;;;38.47;34.50;;;16.20;99.90;;;;;;5121631;27;20483;-71
2021/08/31 08:03:23;;;;;;;38.03;33.17;;;16.10;99.90;;;;;;5121976;28;20456;-72
2021/08/31 08:05:50;;;;;;;35.90;32.20;;;16.20;99.90;;;;;;5116913;27;20557;-73
2021/08/31 08:08:17;;;;;;;37.73;34.00;;;16.30;99.90;;;;;;5130174;27;20471;-75
2021/08/31 08:10:44;;;;;;;36.30;32.60;;;16.30;99.90;;;;;;5121368;27;20456;-71
2021/08/31 08:13:11;;;;;;;34.97;31.67;;;16.50;99.90;;;;;;5121468;27;20812;-72
2021/08/31 08:15:38;;;;;;;36.03;32.53;;;16.60;99.90;;;;;;5125193;27;20951;-74
2021/08/31 08:18:07;;;;;;;36.60;32.67;;;16.70;99.90;;;;;;5126844;27;20467;-72
2021/08/31 08:20:36;;;;;;;35.00;31.80;;;16.70;99.90;;;;;;5136179;27;20524;-71
2021/08/31 08:23:04;;;;;;;35.57;31.97;;;16.80;99.90;;;;;;5120101;27;20456;-71
2021/08/31 08:25:31;;;;;;;37.17;33.40;;;16.90;99.90;;;;;;5120964;27;20452;-72
2021/08/31 08:27:57;;;;;;;35.87;32.00;;;16.90;99.90;;;;;;5130395;27;20966;-71
2021/08/31 08:30:24;;;;;;;36.43;32.67;;;17.00;99.90;;;;;;5129044;27;20451;-71
2021/08/31 08:32:52;;;;;;;37.13;33.00;;;17.00;99.90;;;;;;5132238;27;20456;-71
2021/08/31 08:35:21;;;;;;;36.03;32.20;;;16.90;99.90;;;;;;5125451;27;20459;-70
2021/08/31 08:37:48;;;;;;;35.90;32.30;;;16.70;99.90;;;;;;5122956;27;20988;-71
2021/08/31 08:40:16;;;;;;;35.40;32.00;;;16.40;99.90;;;;;;5128532;27;20468;-72
2021/08/31 08:42:43;;;;;;;37.63;33.30;;;16.20;99.90;;;;;;5124888;27;21242;-74
2021/08/31 08:45:11;;;;;;;35.53;32.07;;;16.10;99.90;;;;;;5135119;27;20448;-71
2021/08/31 08:47:38;;;;;;;35.17;31.67;;;16.20;99.90;;;;;;5122826;27;20859;-70
2021/08/31 08:50:06;;;;;;;36.63;32.83;;;16.10;99.90;;;;;;5119907;27;20480;-71
2021/08/31 08:52:34;;;;;;;33.80;30.40;;;16.20;99.90;;;;;;5121951;27;20801;-69
2021/08/31 08:55:01;;;;;;;35.10;31.60;;;16.10;99.90;;;;;;5124734;27;20487;-71
2021/08/31 08:57:30;;;;;;;35.63;31.73;;;16.20;99.90;;;;;;5129623;27;20472;-71
2021/08/31 08:59:57;;;;;;;34.50;30.90;;;16.30;99.90;;;;;;5124433;27;20484;-73
2021/08/31 09:02:36;;;;;;;36.27;32.43;;;16.40;99.90;;;;;;5131460;27;20462;-71
2021/08/31 09:05:03;;;;;;;34.90;31.50;;;16.50;99.90;;;;;;5123060;27;20463;-73
2021/08/31 09:07:30;;;;;;;33.03;29.80;;;16.50;99.90;;;;;;5125108;27;20491;-71
2021/08/31 09:10:17;;;;;;;34.57;30.97;;;16.50;99.90;;;;;;5119251;27;20490;-71
2021/08/31 09:12:47;;;;;;;33.50;30.03;;;16.60;99.90;;;;;;5113040;27;20452;-73
2021/08/31 09:15:29;;;;;;;34.07;30.53;;;16.50;99.90;;;;;;5119136;27;20461;-71
2021/08/31 09:18:11;;;;;;;32.57;29.17;;;16.70;99.90;;;;;;5129208;27;20453;-71
2021/08/31 09:20:40;;;;;;;33.97;30.70;;;16.80;99.90;;;;;;5125752;27;20544;-73
2021/08/31 09:23:09;;;;;;;35.97;32.03;;;16.80;99.90;;;;;;5129565;27;20828;-71
2021/08/31 09:25:40;;;;;;;34.37;31.10;;;16.70;99.90;;;;;;5125281;27;20819;-71
2021/08/31 09:28:20;;;;;;;34.93;31.30;;;16.80;99.90;;;;;;5124267;27;20463;-71
2021/08/31 09:31:00;;;;;;;35.37;29.20;;;16.80;99.90;;;;;;5121833;27;20467;-71
2021/08/31 09:33:31;;;;;;;31.60;28.50;;;16.90;99.90;;;;;;5126698;27;20456;-71
2021/08/31 09:36:12;;;;;;;33.40;30.20;;;17.00;99.90;;;;;;5118796;27;20463;-70
2021/08/31 09:38:51;;;;;;;37.37;31.20;;;17.00;99.90;;;;;;5120939;27;20483;-72
2021/08/31 09:41:36;;;;;;;31.63;28.30;;;17.00;99.90;;;;;;5124602;27;20480;-73
2021/08/31 09:44:06;;;;;;;31.90;28.63;;;17.20;99.90;;;;;;5125507;27;20449;-73
2021/08/31 09:46:59;;;;;;;32.23;28.80;;;17.30;99.90;;;;;;5122724;27;20456;-72
2021/08/31 09:49:28;;;;;;;29.17;26.30;;;17.40;99.90;;;;;;5126107;27;20568;-73
2021/08/31 09:52:04;;;;;;;30.00;27.10;;;17.30;99.90;;;;;;5126173;27;20453;-73
2021/08/31 09:54:31;;;;;;;31.97;28.73;;;17.40;99.90;;;;;;5127068;27;20826;-74
2021/08/31 09:56:59;;;;;;;30.03;27.07;;;17.30;99.90;;;;;;5124245;27;20460;-74
2021/08/31 09:59:27;;;;;;;28.67;26.37;;;17.50;99.90;;;;;;5127096;27;20452;-71
2021/08/31 10:01:54;;;;;;;28.50;25.70;;;17.60;99.90;;;;;;5119871;27;20551;-71
2021/08/31 10:04:22;;;;;;;27.77;25.33;;;17.80;99.90;;;;;;5128464;27;20468;-71
2021/08/31 10:06:49;;;;;;;27.57;25.27;;;17.90;99.90;;;;;;5133989;27;20456;-72
2021/08/31 10:09:18;;;;;;;27.23;24.83;;;18.20;99.90;;;;;;5131469;27;20475;-72
2021/08/31 10:11:45;;;;;;;26.73;24.43;;;18.50;99.90;;;;;;5117413;27;20460;-71
2021/08/31 10:14:15;;;;;;;27.30;25.20;;;18.80;99.90;;;;;;5124179;27;20448;-73
2021/08/31 10:16:43;;;;;;;27.27;24.97;;;18.80;99.90;;;;;;5123171;27;20476;-71
2021/08/31 10:19:10;;;;;;;28.70;25.90;;;18.80;99.90;;;;;;5125258;27;20458;-71
2021/08/31 10:21:39;;;;;;;30.33;27.43;;;18.90;99.90;;;;;;5134400;27;20457;-70
2021/08/31 10:24:06;;;;;;;26.63;24.40;;;18.80;99.90;;;;;;5126501;27;20580;-72
2021/08/31 10:26:37;;;;;;;28.90;26.17;;;18.90;99.90;;;;;;5119256;27;20567;-73
2021/08/31 10:29:32;;;;;;;28.47;25.97;;;18.80;99.90;;;;;;5123741;27;20487;-73
2021/08/31 10:32:00;;;;;;;28.30;25.73;;;19.00;99.90;;;;;;5124741;27;20542;-71
2021/08/31 10:34:43;;;;;;;26.60;24.30;;;19.40;99.90;;;;;;5127658;27;20460;-72
2021/08/31 10:37:13;;;;;;;28.80;25.30;;;19.50;99.90;;;;;;5111332;27;21060;-74
2021/08/31 10:39:47;;;;;;;28.60;26.20;;;19.80;99.90;;;;;;5128312;27;20804;-72
2021/08/31 10:42:40;;;;;;;28.10;25.70;;;19.60;99.90;;;;;;5126784;27;20454;-71
2021/08/31 10:45:30;;;;;;;28.00;25.83;;;19.60;99.90;;;;;;5128222;27;20473;-71
2021/08/31 10:47:58;;;;;;;30.00;27.33;;;19.60;99.90;;;;;;5127355;27;20560;-71
2021/08/31 10:50:26;;;;;;;28.10;25.67;;;19.60;99.90;;;;;;5125489;27;20545;-73
2021/08/31 10:53:08;;;;;;;27.17;24.47;;;19.60;99.90;;;;;;5117994;27;20548;-73
2021/08/31 10:55:44;;;;;;;24.97;22.60;;;20.20;99.90;;;;;;5125775;27;20459;-71
2021/08/31 10:58:15;;;;;;;26.33;23.80;;;20.70;99.90;;;;;;5118288;27;20484;-72
2021/08/31 11:01:02;;;;;;;26.50;24.30;;;21.00;99.90;;;;;;5122554;27;20468;-72
2021/08/31 11:03:33;;;;;;;27.13;24.50;;;21.40;99.90;;;;;;5120186;27;20444;-72
2021/08/31 11:06:28;;;;;;;24.40;22.47;;;21.50;99.90;;;;;;5117194;27;20458;-70
2021/08/31 11:09:22;;;;;;;24.07;22.17;;;21.70;99.90;;;;;;5114858;27;20449;-71
2021/08/31 11:12:06;;;;;;;23.43;21.60;;;22.90;99.90;;;;;;5099006;27;20566;-70
2021/08/31 11:14:46;;;;;;;24.33;21.07;;;23.30;99.90;;;;;;5129905;27;20456;-71
2021/08/31 11:17:29;;;;;;;23.27;21.27;;;23.30;99.90;;;;;;5128501;27;21133;-73
2021/08/31 11:20:11;;;;;;;23.53;21.47;;;23.30;99.90;;;;;;5122254;27;20456;-69
2021/08/31 11:22:37;;;;;;;22.30;20.70;;;23.20;99.90;;;;;;5119554;27;20460;-72
2021/08/31 11:25:05;;;;;;;22.23;20.63;;;22.70;99.90;;;;;;5120419;27;20459;-71
2021/08/31 11:27:51;;;;;;;23.23;20.80;;;22.70;99.90;;;;;;5118666;27;20453;-72
2021/08/31 11:30:19;;;;;;;21.27;19.70;;;22.60;99.90;;;;;;5120884;27;21020;-70
2021/08/31 11:32:47;;;;;;;23.03;20.97;;;22.80;99.90;;;;;;5130569;27;20496;-70
2021/08/31 11:35:15;;;;;;;21.60;19.70;;;23.00;99.90;;;;;;5130419;27;20452;-71
2021/08/31 11:37:51;;;;;;;22.43;20.70;;;23.30;99.90;;;;;;5128562;27;20871;-69
2021/08/31 11:40:26;;;;;;;22.97;20.70;;;24.30;99.90;;;;;;5115409;27;20448;-69
2021/08/31 11:42:55;;;;;;;21.53;19.53;;;23.60;99.90;;;;;;5125702;27;20462;-71
2021/08/31 11:45:31;;;;;;;21.60;20.10;;;23.30;99.90;;;;;;5125808;27;20460;-69
2021/08/31 11:48:01;;;;;;;20.13;18.47;;;23.60;99.90;;;;;;5125177;27;20452;-71
2021/08/31 11:50:28;;;;;;;21.07;19.30;;;23.60;99.90;;;;;;5125194;27;21063;-69
2021/08/31 11:52:55;;;;;;;21.40;19.67;;;24.20;99.90;;;;;;5116245;27;20448;-69
2021/08/31 11:55:26;;;;;;;21.13;19.33;;;24.40;99.90;;;;;;5130411;27;20447;-71
2021/08/31 11:58:03;;;;;;;20.00;18.30;;;23.90;99.90;;;;;;5124807;27;20448;-71
2021/08/31 12:00:43;;;;;;;19.10;17.80;;;23.80;99.90;;;;;;5122251;27;21098;-73
2021/08/31 12:03:26;;;;;;;21.53;19.40;;;24.30;99.90;;;;;;5127439;27;20575;-69
2021/08/31 12:05:57;;;;;;;21.10;19.40;;;25.10;99.90;;;;;;5121241;27;20838;-70
2021/08/31 12:08:29;;;;;;;21.30;19.80;;;24.30;99.90;;;;;;5127380;27;21487;-69
2021/08/31 12:10:56;;;;;;;21.60;19.90;;;24.40;99.90;;;;;;5139250;27;20475;-70
2021/08/31 12:13:26;;;;;;;21.70;19.87;;;24.20;99.90;;;;;;5136575;27;20462;-69
2021/08/31 12:15:57;;;;;;;20.17;18.53;;;24.80;99.90;;;;;;5127219;27;20480;-69
2021/08/31 12:18:28;;;;;;;19.73;18.23;;;25.50;99.90;;;;;;5124476;27;20539;-70
2021/08/31 12:21:15;;;;;;;18.63;17.33;;;25.20;99.90;;;;;;5128616;27;20495;-70
2021/08/31 12:23:42;;;;;;;19.70;18.17;;;25.40;99.90;;;;;;5121562;27;20811;-73
2021/08/31 12:26:10;;;;;;;18.97;17.60;;;25.60;99.90;;;;;;5137292;27;20457;-70
2021/08/31 12:28:53;;;;;;;18.63;17.23;;;25.90;99.90;;;;;;5127545;27;20451;-74
2021/08/31 12:31:19;;;;;;;19.30;17.80;;;25.10;99.90;;;;;;5127264;27;20489;-71
2021/08/31 12:33:48;;;;;;;19.13;17.80;;;24.60;99.90;;;;;;5127749;27;20459;-75
2021/08/31 12:36:15;;;;;;;18.30;17.00;;;24.60;99.90;;;;;;5133155;27;20462;-71